Time;durP1;ratioP1;P1;durP2;ratioP2;P2;SDS_P1;SDS_P2;PMS_P1;PMS_P2;Temp;Humidity;BMP_temperature;BMP_pressure;BME280_temperature;BME280_humidity;BME280_pressure;Samples;Min_cycle;Max_cycle;Signal;HPM_P1;HPM_P2
2021/12/19 01:25:13;;;;;;;;;;;7.10;99.90;;;;;;6149069;23;19974;-83
2021/12/19 01:27:39;;;;;;;;;;;7.10;99.90;;;;;;6124618;23;20234;-82
2021/12/19 01:30:06;;;;;;;;;;;7.10;99.90;;;;;;6122803;23;20275;-84
2021/12/19 01:32:31;;;;;;;;;;;7.10;99.90;;;;;;6124305;23;19924;-80
2021/12/19 01:34:57;;;;;;;;;;;7.10;99.90;;;;;;6122661;23;20325;-84
2021/12/19 01:37:22;;;;;;;;;;;7.10;99.90;;;;;;6123589;23;20333;-86
2021/12/19 01:39:48;;;;;;;;;;;7.00;99.90;;;;;;6123517;23;19921;-83
2021/12/19 01:42:13;;;;;;;;;;;7.00;99.90;;;;;;6125193;23;20261;-81
2021/12/19 01:44:39;;;;;;;;;;;7.00;99.90;;;;;;6122621;23;19924;-83
2021/12/19 01:47:05;;;;;;;;;;;7.20;99.90;;;;;;6124639;23;20337;-83
2021/12/19 01:49:30;;;;;;;;;;;7.00;99.90;;;;;;6123623;23;20035;-85
2021/12/19 01:51:56;;;;;;;;;;;7.00;99.90;;;;;;6123222;23;19941;-86
2021/12/19 01:54:22;;;;;;;;;;;7.00;99.90;;;;;;6123970;23;19921;-84
2021/12/19 01:56:48;;;;;;;;;;;7.00;99.90;;;;;;6123780;23;19995;-85
2021/12/19 01:59:13;;;;;;;;;;;7.00;99.90;;;;;;6122579;23;19925;-83
2021/12/19 02:01:42;;;;;;;;;;;7.00;99.90;;;;;;6150969;23;19920;-86
2021/12/19 02:04:09;;;;;;;;;;;7.00;99.90;;;;;;6149871;23;20321;-82
2021/12/19 02:06:34;;;;;;;;;;;6.90;99.90;;;;;;6123608;23;19921;-82
2021/12/19 02:09:05;;;;;;;;;;;6.90;99.90;;;;;;6123843;23;20393;-81
2021/12/19 02:11:31;;;;;;;;;;;6.90;99.90;;;;;;6124426;23;19924;-81
2021/12/19 02:13:57;;;;;;;;;;;6.90;99.90;;;;;;6123461;23;19927;-86
2021/12/19 02:16:22;;;;;;;;;;;6.90;99.90;;;;;;6124444;23;20279;-82
2021/12/19 02:18:48;;;;;;;;;;;6.90;99.90;;;;;;6123073;23;19952;-83
2021/12/19 02:21:13;;;;;;;;;;;6.90;99.90;;;;;;6124054;23;20058;-83
2021/12/19 02:23:39;;;;;;;;;;;6.90;99.90;;;;;;6124617;23;19928;-83
2021/12/19 02:26:04;;;;;;;;;;;6.80;99.90;;;;;;6118263;23;19921;-85
2021/12/19 02:28:30;;;;;;;;;;;6.80;99.90;;;;;;6119461;23;20432;-86
2021/12/19 02:30:55;;;;;;;;;;;6.80;99.90;;;;;;6118778;23;19980;-78
2021/12/19 02:33:26;;;;;;;;;;;6.80;99.90;;;;;;6116148;23;19925;-83
2021/12/19 02:36:02;;;;;;;;;;;6.80;99.90;;;;;;6116910;23;19928;-86
2021/12/19 02:39:13;;;;;;;;;;;6.80;99.90;;;;;;6119623;23;19921;-82
2021/12/19 02:49:29;;;;;;;;;;;7.40;99.90;;;;;;6110053;23;20245;-87
2021/12/19 02:51:55;;;;;;;;;;;6.80;99.90;;;;;;6120220;23;20387;-84
2021/12/19 02:54:21;;;;;;;;;;;6.70;99.90;;;;;;6119085;23;19925;-84
2021/12/19 02:56:46;;;;;;;;;;;6.70;99.90;;;;;;6121801;23;20008;-78
2021/12/19 02:59:12;;;;;;;;;;;6.70;99.90;;;;;;6119912;23;19949;-85
2021/12/19 03:01:38;;;;;;;;;;;6.70;99.90;;;;;;6120236;23;20052;-84
2021/12/19 03:04:03;;;;;;;;;;;6.70;99.90;;;;;;6120450;23;19980;-84
2021/12/19 03:06:29;;;;;;;;;;;6.70;99.90;;;;;;6119615;23;19936;-81
2021/12/19 03:08:57;;;;;;;;;;;6.70;99.90;;;;;;6119449;23;19932;-83
2021/12/19 03:19:35;;;;;;;;;;;6.60;99.90;;;;;;6119827;23;19929;-82
2021/12/19 03:22:01;;;;;;;;;;;6.60;99.90;;;;;;6119494;23;19979;-83
2021/12/19 03:24:27;;;;;;;;;;;6.60;99.90;;;;;;6119728;23;19924;-82
2021/12/19 03:26:53;;;;;;;;;;;6.60;99.90;;;;;;6120390;23;19965;-81
2021/12/19 03:29:18;;;;;;;;;;;6.60;99.90;;;;;;6119323;23;19975;-81
2021/12/19 03:31:44;;;;;;;;;;;6.60;99.90;;;;;;6120305;23;20048;-87
2021/12/19 03:34:13;;;;;;;;;;;6.60;99.90;;;;;;6120439;23;19930;-80
2021/12/19 03:36:38;;;;;;;;;;;6.60;99.90;;;;;;6119129;23;19921;-83
2021/12/19 03:39:13;;;;;;;;;;;6.60;99.90;;;;;;6119849;23;19967;-83
2021/12/19 03:41:42;;;;;;;;;;;6.60;99.90;;;;;;6120392;23;19979;-82
2021/12/19 03:44:08;;;;;;;;;;;6.60;99.90;;;;;;6120272;23;19963;-84
2021/12/19 03:46:35;;;;;;;;;;;6.60;99.90;;;;;;6121839;23;20309;-84
2021/12/19 03:49:00;;;;;;;;;;;6.60;99.90;;;;;;6120309;23;19969;-83
2021/12/19 03:51:28;;;;;;;;;;;6.60;99.90;;;;;;6120960;23;19933;-83
2021/12/19 03:53:54;;;;;;;;;;;6.60;99.90;;;;;;6119651;23;19932;-82
2021/12/19 03:56:22;;;;;;;;;;;6.80;99.90;;;;;;6120280;23;20242;-86
2021/12/19 03:58:47;;;;;;;;;;;6.60;99.90;;;;;;6119650;23;19920;-84
2021/12/19 04:01:13;;;;;;;;;;;6.80;99.90;;;;;;6119876;23;19959;-82
2021/12/19 04:03:40;;;;;;;;;;;6.60;99.90;;;;;;6119986;23;19928;-83
2021/12/19 04:06:05;;;;;;;;;;;6.60;99.90;;;;;;6119451;23;20382;-86
2021/12/19 04:08:31;;;;;;;;;;;6.60;99.90;;;;;;6121515;23;19984;-82
2021/12/19 04:10:56;;;;;;;;;;;6.60;99.90;;;;;;6121613;23;20048;-87
2021/12/19 04:13:23;;;;;;;;;;;6.70;99.90;;;;;;6119810;23;19976;-83
2021/12/19 04:15:49;;;;;;;;;;;6.60;99.90;;;;;;6119575;23;20243;-82
2021/12/19 04:18:15;;;;;;;;;;;6.60;99.90;;;;;;6119817;23;20261;-83
2021/12/19 04:20:40;;;;;;;;;;;6.70;99.90;;;;;;6119537;23;19924;-84
2021/12/19 04:23:06;;;;;;;;;;;6.70;99.90;;;;;;6120350;23;20210;-81
2021/12/19 04:25:34;;;;;;;;;;;6.70;99.90;;;;;;6118128;23;19921;-82
2021/12/19 04:27:59;;;;;;;;;;;6.70;99.90;;;;;;6119581;23;19968;-82
2021/12/19 04:30:26;;;;;;;;;;;6.70;99.90;;;;;;6119270;23;19995;-86
2021/12/19 04:33:08;;;;;;;;;;;6.70;99.90;;;;;;6119156;23;19927;-84
2021/12/19 04:35:35;;;;;;;;;;;6.70;99.90;;;;;;6118422;23;20586;-81
2021/12/19 04:54:51;;;;;;;;;;;6.80;99.90;;;;;;6118029;23;19954;-84
2021/12/19 05:00:04;;;;;;;;;;;6.80;99.90;;;;;;6121029;23;19920;-82
2021/12/19 05:02:50;;;;;;;;;;;6.80;99.90;;;;;;6118966;23;19929;-83
2021/12/19 05:16:03;;;;;;;;;;;6.80;99.90;;;;;;6118227;23;19921;-84
2021/12/19 05:18:32;;;;;;;;;;;6.90;99.90;;;;;;6119976;23;19925;-82
2021/12/19 05:21:02;;;;;;;;;;;6.90;99.90;;;;;;6118859;23;20019;-85
2021/12/19 05:25:56;;;;;;;;;;;6.90;99.90;;;;;;6118730;23;19921;-84
2021/12/19 05:28:22;;;;;;;;;;;6.90;99.90;;;;;;6119876;23;19921;-83
2021/12/19 05:30:48;;;;;;;;;;;6.90;99.90;;;;;;6117857;23;20352;-82
2021/12/19 05:33:13;;;;;;;;;;;6.90;99.90;;;;;;6119706;23;19956;-85
2021/12/19 05:46:35;;;;;;;;;;;6.80;99.90;;;;;;6119261;23;19928;-84
2021/12/19 05:49:04;;;;;;;;;;;6.90;99.90;;;;;;6118804;23;19967;-83
2021/12/19 05:51:30;;;;;;;;;;;6.90;99.90;;;;;;6118163;23;20020;-84
2021/12/19 05:53:55;;;;;;;;;;;6.90;99.90;;;;;;6120136;23;20366;-83
2021/12/19 05:56:21;;;;;;;;;;;6.90;99.90;;;;;;6121522;23;19927;-82
2021/12/19 05:58:46;;;;;;;;;;;6.90;99.90;;;;;;6115371;23;20028;-83
2021/12/19 06:01:12;;;;;;;;;;;6.80;99.90;;;;;;6116951;23;19944;-84
2021/12/19 06:03:38;;;;;;;;;;;6.80;99.90;;;;;;6118360;23;20241;-83
2021/12/19 06:06:03;;;;;;;;;;;6.90;99.90;;;;;;6118058;23;19964;-84
2021/12/19 06:08:29;;;;;;;;;;;6.80;99.90;;;;;;6119339;23;19925;-82
2021/12/19 06:10:54;;;;;;;;;;;6.80;99.90;;;;;;6116997;23;20408;-82
2021/12/19 06:13:22;;;;;;;;;;;6.80;99.90;;;;;;6119401;23;20421;-81
2021/12/19 06:15:52;;;;;;;;;;;6.90;99.90;;;;;;6117394;23;19925;-85
2021/12/19 06:18:20;;;;;;;;;;;6.80;99.90;;;;;;6120491;23;19921;-82
2021/12/19 06:20:46;;;;;;;;;;;6.80;99.90;;;;;;6119854;23;19925;-84
2021/12/19 06:23:11;;;;;;;;;;;6.90;99.90;;;;;;6121672;23;20396;-85
2021/12/19 06:25:37;;;;;;;;;;;6.80;99.90;;;;;;6124293;23;19932;-81
2021/12/19 06:28:03;;;;;;;;;;;6.80;99.90;;;;;;6123082;23;19959;-84
2021/12/19 06:30:29;;;;;;;;;;;6.90;99.90;;;;;;6124248;23;20346;-84
2021/12/19 06:32:55;;;;;;;;;;;6.90;99.90;;;;;;6125489;23;19928;-81
2021/12/19 06:35:22;;;;;;;;;;;6.90;99.90;;;;;;6124947;23;19925;-82
2021/12/19 06:37:49;;;;;;;;;;;6.90;99.90;;;;;;6152119;23;19921;-85
2021/12/19 06:40:16;;;;;;;;;;;6.90;99.90;;;;;;6125020;23;19921;-83
2021/12/19 06:42:42;;;;;;;;;;;6.90;99.90;;;;;;6121672;23;19944;-84
2021/12/19 06:45:08;;;;;;;;;;;6.90;99.90;;;;;;6125732;23;19920;-85
2021/12/19 06:47:33;;;;;;;;;;;6.90;99.90;;;;;;6122912;23;19921;-88
2021/12/19 06:49:59;;;;;;;;;;;6.90;99.90;;;;;;6120738;23;20254;-85
2021/12/19 06:52:25;;;;;;;;;;;6.90;99.90;;;;;;6126106;23;20320;-83
2021/12/19 06:54:50;;;;;;;;;;;6.90;99.90;;;;;;6124639;23;19948;-83
2021/12/19 06:57:16;;;;;;;;;;;6.90;99.90;;;;;;6125486;23;19992;-84
2021/12/19 06:59:41;;;;;;;;;;;6.90;99.90;;;;;;6125626;23;20000;-86
2021/12/19 07:02:07;;;;;;;;;;;6.90;99.90;;;;;;6125249;23;19959;-84
2021/12/19 07:04:33;;;;;;;;;;;6.90;99.90;;;;;;6125211;23;19917;-85
2021/12/19 07:06:58;;;;;;;;;;;6.90;99.90;;;;;;6124265;23;19927;-85
2021/12/19 07:09:24;;;;;;;;;;;6.90;99.90;;;;;;6124469;23;19921;-86
2021/12/19 07:11:49;;;;;;;;;;;6.90;99.90;;;;;;6123833;23;19924;-87
2021/12/19 07:14:15;;;;;;;;;;;6.90;99.90;;;;;;6151567;23;20337;-84
2021/12/19 07:16:40;;;;;;;;;;;6.90;99.90;;;;;;6150288;23;19927;-85
2021/12/19 07:19:06;;;;;;;;;;;6.90;99.90;;;;;;6124037;23;19921;-83
2021/12/19 07:21:31;;;;;;;;;;;6.90;99.90;;;;;;6121025;23;19998;-85
2021/12/19 07:23:57;;;;;;;;;;;6.90;99.90;;;;;;6121878;23;19928;-82
2021/12/19 07:26:23;;;;;;;;;;;6.90;99.90;;;;;;6124078;23;20237;-83
2021/12/19 07:28:49;;;;;;;;;;;6.90;99.90;;;;;;6122644;23;19920;-86
2021/12/19 07:31:16;;;;;;;;;;;6.90;99.90;;;;;;6123227;23;19988;-84
2021/12/19 07:33:43;;;;;;;;;;;7.00;99.90;;;;;;6125662;23;19921;-86
2021/12/19 07:36:09;;;;;;;;;;;6.90;99.90;;;;;;6122891;23;19921;-83
2021/12/19 07:38:41;;;;;;;;;;;7.00;99.90;;;;;;6124370;23;20232;-84
2021/12/19 07:41:06;;;;;;;;;;;7.00;99.90;;;;;;6125071;23;19995;-83
2021/12/19 07:43:32;;;;;;;;;;;7.00;99.90;;;;;;6124934;23;20292;-83
2021/12/19 07:45:57;;;;;;;;;;;7.00;99.90;;;;;;6124843;23;20533;-88
2021/12/19 07:48:23;;;;;;;;;;;7.00;99.90;;;;;;6125938;23;19940;-83
2021/12/19 07:50:49;;;;;;;;;;;7.00;99.90;;;;;;6121334;23;19936;-84
2021/12/19 07:53:14;;;;;;;;;;;7.00;99.90;;;;;;6125040;23;19931;-87
2021/12/19 07:55:40;;;;;;;;;;;7.00;99.90;;;;;;6150624;23;19924;-87
2021/12/19 07:58:05;;;;;;;;;;;7.00;99.90;;;;;;6124545;23;19943;-84
2021/12/19 08:00:31;;;;;;;;;;;7.00;99.90;;;;;;6123906;23;19920;-84
2021/12/19 08:02:56;;;;;;;;;;;7.10;99.90;;;;;;6151368;23;19920;-84
2021/12/19 08:05:22;;;;;;;;;;;7.10;99.90;;;;;;6122850;23;19920;-83
2021/12/19 08:07:54;;;;;;;;;;;7.10;99.90;;;;;;6125629;23;19925;-86
2021/12/19 08:12:45;;;;;;;;;;;7.10;99.90;;;;;;6124971;23;20041;-84
2021/12/19 08:15:11;;;;;;;;;;;7.10;99.90;;;;;;6124225;23;19931;-83
2021/12/19 08:17:37;;;;;;;;;;;7.10;99.90;;;;;;6124658;23;20231;-87
2021/12/19 08:20:04;;;;;;;;;;;7.10;99.90;;;;;;6151682;23;20011;-86
2021/12/19 08:22:31;;;;;;;;;;;7.10;99.90;;;;;;6125722;23;19920;-94
2021/12/19 08:24:57;;;;;;;;;;;7.10;99.90;;;;;;6120407;23;19995;-86
2021/12/19 08:27:23;;;;;;;;;;;7.10;99.90;;;;;;6121897;23;19921;-85
2021/12/19 08:29:49;;;;;;;;;;;7.10;99.90;;;;;;6120609;23;20322;-89
2021/12/19 08:32:14;;;;;;;;;;;7.10;99.90;;;;;;6120803;23;19921;-88
2021/12/19 08:34:40;;;;;;;;;;;7.10;99.90;;;;;;6120893;23;19925;-84
2021/12/19 08:37:05;;;;;;;;;;;7.10;99.90;;;;;;6121708;23;19928;-88
2021/12/19 08:39:33;;;;;;;;;;;7.10;99.90;;;;;;6121140;23;19924;-84
2021/12/19 08:41:59;;;;;;;;;;;7.10;99.90;;;;;;6121164;23;19928;-86
2021/12/19 08:44:24;;;;;;;;;;;7.10;99.90;;;;;;6120610;23;19924;-86
2021/12/19 08:46:50;;;;;;;;;;;7.10;99.90;;;;;;6122077;23;20364;-86
2021/12/19 08:49:15;;;;;;;;;;;7.20;99.90;;;;;;6120997;23;19924;-85
2021/12/19 08:51:41;;;;;;;;;;;7.20;99.90;;;;;;6120217;23;20279;-85
2021/12/19 08:54:07;;;;;;;;;;;7.20;99.90;;;;;;6120947;23;20022;-84
2021/12/19 08:56:33;;;;;;;;;;;7.20;99.90;;;;;;6119431;23;20349;-84
2021/12/19 08:58:59;;;;;;;;;;;7.20;99.90;;;;;;6121673;23;19925;-84
2021/12/19 09:01:25;;;;;;;;;;;7.20;99.90;;;;;;6119079;23;20306;-87
2021/12/19 09:03:51;;;;;;;;;;;7.20;99.90;;;;;;6120218;23;19925;-84
2021/12/19 09:06:16;;;;;;;;;;;7.20;99.90;;;;;;6120360;23;20011;-83
2021/12/19 09:08:42;;;;;;;;;;;7.20;99.90;;;;;;6120085;23;20031;-81
2021/12/19 09:11:07;;;;;;;;;;;7.30;99.90;;;;;;6120204;23;19960;-84
2021/12/19 09:13:33;;;;;;;;;;;7.30;99.90;;;;;;6120734;23;19920;-83
2021/12/19 09:16:00;;;;;;;;;;;7.30;99.90;;;;;;6118535;23;19932;-83
2021/12/19 09:18:26;;;;;;;;;;;7.30;99.90;;;;;;6119815;23;19921;-85
2021/12/19 09:20:52;;;;;;;;;;;7.30;99.90;;;;;;6119418;23;20313;-82
2021/12/19 09:23:18;;;;;;;;;;;7.30;99.90;;;;;;6119674;23;19921;-82
2021/12/19 09:25:44;;;;;;;;;;;7.30;99.90;;;;;;6119121;23;20275;-82
2021/12/19 09:28:09;;;;;;;;;;;7.30;99.90;;;;;;6118903;23;19976;-82
2021/12/19 09:30:35;;;;;;;;;;;7.30;99.90;;;;;;6119836;23;19921;-86
2021/12/19 09:33:01;;;;;;;;;;;7.30;99.90;;;;;;6121071;23;19932;-83
2021/12/19 09:35:26;;;;;;;;;;;7.30;99.90;;;;;;6120165;23;19928;-83
2021/12/19 09:37:52;;;;;;;;;;;7.30;99.90;;;;;;6119373;23;20518;-86
2021/12/19 09:40:22;;;;;;;;;;;7.30;99.90;;;;;;6119942;23;19925;-82
2021/12/19 09:42:49;;;;;;;;;;;7.30;99.90;;;;;;6120558;23;19921;-82
2021/12/19 09:45:15;;;;;;;;;;;7.30;99.90;;;;;;6121128;23;20000;-83
2021/12/19 09:47:41;;;;;;;;;;;7.30;99.90;;;;;;6120330;23;19927;-85
2021/12/19 09:50:07;;;;;;;;;;;7.30;99.90;;;;;;6119504;23;20692;-84
2021/12/19 09:52:33;;;;;;;;;;;7.30;99.90;;;;;;6118849;23;19932;-83
2021/12/19 09:54:59;;;;;;;;;;;7.40;99.90;;;;;;6119751;23;20287;-86
2021/12/19 09:57:24;;;;;;;;;;;7.30;99.90;;;;;;6119181;23;19995;-83
2021/12/19 09:59:50;;;;;;;;;;;7.30;99.90;;;;;;6119267;23;20392;-91
2021/12/19 10:02:16;;;;;;;;;;;7.40;99.90;;;;;;6118964;23;19928;-85
2021/12/19 10:04:43;;;;;;;;;;;7.30;99.90;;;;;;6118141;23;19920;-84
2021/12/19 10:07:18;;;;;;;;;;;7.40;99.90;;;;;;6119680;23;19925;-85
2021/12/19 10:09:55;;;;;;;;;;;7.30;99.90;;;;;;6120539;23;19928;-88
2021/12/19 10:13:03;;;;;;;;;;;7.30;99.90;;;;;;6120613;23;20241;-88
2021/12/19 10:15:11;;;;;;;;;;;7.40;99.90;;;;;;6110145;23;19948;-92
2021/12/19 10:17:37;;;;;;;;;;;7.40;99.90;;;;;;6121660;23;20047;-86
2021/12/19 10:20:05;;;;;;;;;;;7.40;99.90;;;;;;6119683;23;20524;-86
2021/12/19 10:22:32;;;;;;;;;;;7.40;99.90;;;;;;6121692;23;19936;-83
2021/12/19 10:25:07;;;;;;;;;;;7.40;99.90;;;;;;6119971;23;19956;-86
2021/12/19 10:27:33;;;;;;;;;;;7.40;99.90;;;;;;6120812;23;19921;-85
2021/12/19 10:29:59;;;;;;;;;;;7.40;99.90;;;;;;6119621;23;20322;-85
2021/12/19 10:32:25;;;;;;;;;;;7.40;99.90;;;;;;6118985;23;19928;-86
2021/12/19 10:34:50;;;;;;;;;;;7.40;99.90;;;;;;6118234;23;19927;-86
2021/12/19 10:37:32;;;;;;;;;;;7.30;99.90;;;;;;6121048;23;19959;-84
2021/12/19 10:40:01;;;;;;;;;;;7.40;99.90;;;;;;6120635;23;19932;-87
2021/12/19 10:42:26;;;;;;;;;;;7.40;99.90;;;;;;6121476;23;19971;-86
2021/12/19 10:47:37;;;;;;;;;;;7.40;99.90;;;;;;6123979;23;19921;-83
2021/12/19 10:50:03;;;;;;;;;;;7.40;99.90;;;;;;6119357;23;20268;-83
2021/12/19 10:52:30;;;;;;;;;;;7.40;99.90;;;;;;6119171;23;19920;-83
2021/12/19 10:54:57;;;;;;;;;;;7.40;99.90;;;;;;6120734;23;19925;-82
2021/12/19 10:57:29;;;;;;;;;;;7.40;99.90;;;;;;6120048;23;20008;-84
2021/12/19 10:59:54;;;;;;;;;;;7.40;99.90;;;;;;6118097;23;20352;-92
2021/12/19 11:02:33;;;;;;;;;;;7.50;99.90;;;;;;6120550;23;19976;-86
2021/12/19 11:04:59;;;;;;;;;;;7.50;99.90;;;;;;6121022;23;19924;-88
2021/12/19 11:07:24;;;;;;;;;;;7.50;99.90;;;;;;6123143;23;20529;-89
2021/12/19 11:09:50;;;;;;;;;;;7.50;99.90;;;;;;6121273;23;20042;-87
2021/12/19 11:12:15;;;;;;;;;;;7.50;99.90;;;;;;6121771;23;19963;-88
2021/12/19 11:14:47;;;;;;;;;;;7.50;99.90;;;;;;6122931;23;19988;-85
2021/12/19 11:17:23;;;;;;;;;;;7.50;99.90;;;;;;6122038;23;20024;-83
2021/12/19 11:19:50;;;;;;;;;;;7.50;99.90;;;;;;6120949;23;20407;-85
2021/12/19 11:22:23;;;;;;;;;;;7.60;99.90;;;;;;6118680;23;20356;-85
2021/12/19 11:24:50;;;;;;;;;;;7.60;99.90;;;;;;6120787;23;20357;-86
2021/12/19 11:27:15;;;;;;;;;;;7.60;99.90;;;;;;6120733;23;19972;-82
2021/12/19 11:29:42;;;;;;;;;;;7.60;99.90;;;;;;6121081;23;19992;-85
2021/12/19 11:32:09;;;;;;;;;;;7.60;99.90;;;;;;6120587;23;20223;-86
2021/12/19 11:34:53;;;;;;;;;;;7.40;99.90;;;;;;6119240;23;20401;-82
2021/12/19 11:37:23;;;;;;;;;;;7.60;99.90;;;;;;6122213;23;19921;-88
2021/12/19 11:39:50;;;;;;;;;;;7.70;99.90;;;;;;6121348;23;19932;-90
2021/12/19 11:42:16;;;;;;;;;;;7.70;99.90;;;;;;6119754;23;19952;-83
2021/12/19 11:47:37;;;;;;;;;;;7.70;99.90;;;;;;6117650;23;20340;-81
2021/12/19 11:50:14;;;;;;;;;;;7.70;99.90;;;;;;6117190;23;20335;-82
2021/12/19 11:52:40;;;;;;;;;;;7.70;99.90;;;;;;6121363;23;20414;-83
2021/12/19 11:55:15;;;;;;;;;;;7.80;99.90;;;;;;6120532;23;19996;-84
2021/12/19 11:58:00;;;;;;;;;;;7.80;99.90;;;;;;6120458;23;19929;-85
2021/12/19 12:00:27;;;;;;;;;;;7.80;99.90;;;;;;6082243;23;19920;-83
2021/12/19 12:03:11;;;;;;;;;;;7.80;99.90;;;;;;6119855;23;19932;-84
2021/12/19 12:05:37;;;;;;;;;;;7.80;99.90;;;;;;6119673;23;19920;-84
2021/12/19 12:08:09;;;;;;;;;;;7.80;99.90;;;;;;6120765;23;20250;-89
2021/12/19 12:10:54;;;;;;;;;;;7.80;99.90;;;;;;6118517;23;19921;-85
2021/12/19 12:13:33;;;;;;;;;;;7.80;99.90;;;;;;6119376;23;20364;-84
2021/12/19 12:16:26;;;;;;;;;;;7.80;99.90;;;;;;6121223;23;19921;-84
2021/12/19 12:18:58;;;;;;;;;;;7.90;99.90;;;;;;6130999;23;19921;-85
2021/12/19 12:24:02;;;;;;;;;;;7.90;99.90;;;;;;6122045;23;19929;-89
2021/12/19 12:26:32;;;;;;;;;;;8.00;99.90;;;;;;6126868;23;19921;-86
2021/12/19 12:28:58;;;;;;;;;;;7.90;99.90;;;;;;6125201;23;20065;-87
2021/12/19 12:31:24;;;;;;;;;;;7.90;99.90;;;;;;6121858;23;19920;-86
2021/12/19 12:33:50;;;;;;;;;;;7.90;99.90;;;;;;6123214;23;20408;-86
2021/12/19 12:36:16;;;;;;;;;;;7.90;99.90;;;;;;6122837;23;20273;-86
2021/12/19 12:38:46;;;;;;;;;;;7.90;99.90;;;;;;6124783;23;19928;-89
2021/12/19 12:41:26;;;;;;;;;;;7.90;99.90;;;;;;6124149;23;20345;-91
2021/12/19 12:43:52;;;;;;;;;;;7.90;99.90;;;;;;6126450;23;19960;-89
2021/12/19 12:46:18;;;;;;;;;;;7.80;99.90;;;;;;6126221;23;19947;-89
2021/12/19 12:48:52;;;;;;;;;;;7.90;99.90;;;;;;6125708;23;19990;-86
2021/12/19 12:51:19;;;;;;;;;;;7.80;99.90;;;;;;6150835;23;20260;-88
2021/12/19 12:53:46;;;;;;;;;;;7.80;99.90;;;;;;6119956;23;20199;-89
2021/12/19 12:56:18;;;;;;;;;;;7.80;99.90;;;;;;6123286;23;19921;-94
2021/12/19 12:58:55;;;;;;;;;;;7.80;99.90;;;;;;6121218;23;19947;-86
2021/12/19 13:01:25;;;;;;;;;;;7.90;99.90;;;;;;6122664;23;20234;-84
2021/12/19 13:03:59;;;;;;;;;;;7.80;99.90;;;;;;6122860;23;20368;-83
2021/12/19 13:06:38;;;;;;;;;;;7.80;99.90;;;;;;6125584;23;20042;-84
2021/12/19 13:09:15;;;;;;;;;;;7.90;99.90;;;;;;6129655;23;19932;-85
2021/12/19 13:11:40;;;;;;;;;;;7.90;99.90;;;;;;6128696;23;19929;-88
2021/12/19 13:14:25;;;;;;;;;;;7.90;99.90;;;;;;6127264;23;19920;-84
2021/12/19 13:16:53;;;;;;;;;;;7.90;99.90;;;;;;6126463;23;19924;-86
2021/12/19 13:19:36;;;;;;;;;;;7.90;99.90;;;;;;6124165;23;19939;-88
2021/12/19 13:22:03;;;;;;;;;;;7.90;99.90;;;;;;6149585;23;20337;-89
2021/12/19 13:24:30;;;;;;;;;;;7.80;99.90;;;;;;6120841;23;19939;-84
2021/12/19 13:27:02;;;;;;;;;;;7.90;99.90;;;;;;6119784;23;19921;-86
2021/12/19 13:29:29;;;;;;;;;;;7.90;99.90;;;;;;6119437;23;19924;-88
2021/12/19 13:31:55;;;;;;;;;;;7.90;99.90;;;;;;6118235;23;19928;-83
2021/12/19 13:34:20;;;;;;;;;;;7.90;99.90;;;;;;6119168;23;19929;-84
2021/12/19 13:37:00;;;;;;;;;;;7.90;99.90;;;;;;6119220;23;20244;-87
2021/12/19 13:39:26;;;;;;;;;;;7.90;99.90;;;;;;6119154;23;20360;-84
2021/12/19 13:41:51;;;;;;;;;;;7.90;99.90;;;;;;6118964;23;19958;-92
2021/12/19 13:44:29;;;;;;;;;;;7.90;99.90;;;;;;6118932;23;19921;-84
2021/12/19 13:46:55;;;;;;;;;;;7.90;99.90;;;;;;6121432;23;19921;-87
2021/12/19 13:49:21;;;;;;;;;;;7.90;99.90;;;;;;6120882;23;20056;-83
2021/12/19 13:51:46;;;;;;;;;;;7.90;99.90;;;;;;6120631;23;20040;-91
2021/12/19 13:54:12;;;;;;;;;;;7.90;99.90;;;;;;6119237;23;19925;-87
2021/12/19 13:56:37;;;;;;;;;;;7.90;99.90;;;;;;6121282;23;20008;-86
2021/12/19 13:59:17;;;;;;;;;;;7.90;99.90;;;;;;6119707;23;19925;-84
2021/12/19 14:01:43;;;;;;;;;;;8.00;99.90;;;;;;6119705;23;19968;-82
2021/12/19 14:04:22;;;;;;;;;;;7.90;99.90;;;;;;6119630;23;19921;-83
2021/12/19 14:06:49;;;;;;;;;;;7.90;99.90;;;;;;6120622;23;19925;-88
2021/12/19 14:09:17;;;;;;;;;;;7.90;99.90;;;;;;6118611;23;19987;-88
2021/12/19 14:11:44;;;;;;;;;;;7.90;99.90;;;;;;6121773;23;19925;-83
2021/12/19 14:14:23;;;;;;;;;;;7.90;99.90;;;;;;6119025;23;19976;-86
2021/12/19 14:16:49;;;;;;;;;;;7.90;99.90;;;;;;6119223;23;19932;-86
2021/12/19 14:19:19;;;;;;;;;;;7.90;99.90;;;;;;6119111;23;19987;-84
2021/12/19 14:21:45;;;;;;;;;;;7.90;99.90;;;;;;6121116;23;20448;-86
2021/12/19 14:24:31;;;;;;;;;;;7.90;99.90;;;;;;6122315;23;19921;-84
2021/12/19 14:27:25;;;;;;;;;;;7.80;99.90;;;;;;6125681;23;19991;-86
2021/12/19 14:30:07;;;;;;;;;;;7.80;99.90;;;;;;6081460;23;19931;-89
2021/12/19 14:32:34;;;;;;;;;;;7.80;99.90;;;;;;6125637;23;20000;-89
2021/12/19 14:35:12;;;;;;;;;;;7.80;99.90;;;;;;6123410;23;20027;-82
2021/12/19 14:37:38;;;;;;;;;;;7.80;99.90;;;;;;6126627;23;19931;-87
2021/12/19 14:40:12;;;;;;;;;;;7.70;99.90;;;;;;6124748;23;19955;-82
2021/12/19 14:42:57;;;;;;;;;;;7.70;99.90;;;;;;6124301;23;19920;-85
2021/12/19 14:45:24;;;;;;;;;;;7.70;99.90;;;;;;6148924;23;19917;-83
2021/12/19 14:48:04;;;;;;;;;;;7.70;99.90;;;;;;6124086;23;19924;-81
2021/12/19 14:50:37;;;;;;;;;;;7.60;99.90;;;;;;6125826;23;20011;-84
2021/12/19 14:53:08;;;;;;;;;;;7.70;99.90;;;;;;6151398;23;19921;-82
2021/12/19 14:55:35;;;;;;;;;;;7.60;99.90;;;;;;6151566;23;19916;-86
2021/12/19 14:58:02;;;;;;;;;;;7.60;99.90;;;;;;6150933;23;19924;-85
2021/12/19 15:00:28;;;;;;;;;;;7.60;99.90;;;;;;6125750;23;19972;-86
2021/12/19 15:02:54;;;;;;;;;;;7.60;99.90;;;;;;6124534;23;20012;-83
2021/12/19 15:05:19;;;;;;;;;;;7.60;99.90;;;;;;6124361;23;19952;-83
2021/12/19 15:07:46;;;;;;;;;;;7.50;99.90;;;;;;6124373;23;19924;-85
2021/12/19 15:10:13;;;;;;;;;;;7.50;99.90;;;;;;6122448;23;20182;-84
2021/12/19 15:12:38;;;;;;;;;;;7.60;99.90;;;;;;6122684;23;20016;-85
2021/12/19 15:15:05;;;;;;;;;;;7.50;99.90;;;;;;6126239;23;20462;-83
2021/12/19 15:17:30;;;;;;;;;;;7.50;99.90;;;;;;6125024;23;19996;-82
2021/12/19 15:19:56;;;;;;;;;;;7.50;99.90;;;;;;6122806;23;20356;-84
2021/12/19 15:22:21;;;;;;;;;;;7.50;99.90;;;;;;6125742;23;19921;-83
2021/12/19 15:24:47;;;;;;;;;;;7.50;99.90;;;;;;6119895;23;19920;-82
2021/12/19 15:27:12;;;;;;;;;;;7.50;99.90;;;;;;6121022;23;19976;-85
2021/12/19 15:29:38;;;;;;;;;;;7.50;99.90;;;;;;6121179;23;19921;-88
2021/12/19 15:32:03;;;;;;;;;;;7.50;99.90;;;;;;6121199;23;20198;-83
2021/12/19 15:34:29;;;;;;;;;;;7.50;99.90;;;;;;6118975;23;19921;-81
2021/12/19 15:36:55;;;;;;;;;;;7.50;99.90;;;;;;6119752;23;19920;-85
2021/12/19 15:39:21;;;;;;;;;;;7.50;99.90;;;;;;6118909;23;19921;-82
2021/12/19 15:41:46;;;;;;;;;;;7.40;99.90;;;;;;6119723;23;19956;-88
2021/12/19 15:44:12;;;;;;;;;;;7.40;99.90;;;;;;6119714;23;20551;-86
2021/12/19 15:46:37;;;;;;;;;;;7.50;99.90;;;;;;6117717;23;19999;-84
2021/12/19 15:49:03;;;;;;;;;;;7.40;99.90;;;;;;6119172;23;20456;-83
2021/12/19 15:51:28;;;;;;;;;;;7.50;99.90;;;;;;6119733;23;20430;-86
2021/12/19 15:53:54;;;;;;;;;;;7.50;99.90;;;;;;6119146;23;19920;-89
2021/12/19 15:56:21;;;;;;;;;;;7.40;99.90;;;;;;6121850;23;20393;-88
2021/12/19 15:58:46;;;;;;;;;;;7.40;99.90;;;;;;6120586;23;19921;-91
2021/12/19 16:01:13;;;;;;;;;;;7.40;99.90;;;;;;6119731;23;20038;-87
2021/12/19 16:03:38;;;;;;;;;;;7.50;99.90;;;;;;6120984;23;19950;-88
2021/12/19 16:06:04;;;;;;;;;;;7.40;99.90;;;;;;6121680;23;19928;-82
2021/12/19 16:08:29;;;;;;;;;;;7.50;99.90;;;;;;6120025;23;19956;-80
2021/12/19 16:10:55;;;;;;;;;;;7.40;99.90;;;;;;6121730;23;19921;-85
2021/12/19 16:13:21;;;;;;;;;;;7.40;99.90;;;;;;6122050;23;19929;-85
2021/12/19 16:15:48;;;;;;;;;;;7.40;99.90;;;;;;6119462;23;20294;-83
2021/12/19 16:18:14;;;;;;;;;;;7.40;99.90;;;;;;6120985;23;19999;-83
2021/12/19 16:20:39;;;;;;;;;;;7.40;99.90;;;;;;6118697;23;19932;-83
2021/12/19 16:23:05;;;;;;;;;;;7.40;99.90;;;;;;6119839;23;20003;-85
2021/12/19 16:25:31;;;;;;;;;;;7.40;99.90;;;;;;6119282;23;19939;-86
2021/12/19 16:28:01;;;;;;;;;;;7.50;99.90;;;;;;6120547;23;19991;-84
2021/12/19 16:30:26;;;;;;;;;;;7.40;99.90;;;;;;6118939;23;19917;-86
2021/12/19 16:32:57;;;;;;;;;;;7.40;99.90;;;;;;6119997;23;19991;-85
2021/12/19 16:35:27;;;;;;;;;;;7.40;99.90;;;;;;6122483;23;20075;-90
2021/12/19 16:37:53;;;;;;;;;;;7.40;99.90;;;;;;6120121;23;19921;-87
2021/12/19 16:40:19;;;;;;;;;;;7.40;99.90;;;;;;6118354;23;20334;-86
2021/12/19 16:45:10;;;;;;;;;;;7.40;99.90;;;;;;6119987;23;19963;-87
2021/12/19 16:47:37;;;;;;;;;;;7.40;99.90;;;;;;6120011;23;19948;-88
2021/12/19 16:50:04;;;;;;;;;;;7.40;99.90;;;;;;6120595;23;20369;-86
2021/12/19 16:52:29;;;;;;;;;;;7.40;99.90;;;;;;6120863;23;19932;-86
2021/12/19 16:54:57;;;;;;;;;;;7.50;99.90;;;;;;6120170;23;20217;-86
2021/12/19 16:57:23;;;;;;;;;;;7.40;99.90;;;;;;6122832;23;19925;-86
2021/12/19 16:59:49;;;;;;;;;;;7.50;99.90;;;;;;6121561;23;20004;-86
2021/12/19 17:02:14;;;;;;;;;;;7.50;99.90;;;;;;6122067;23;20016;-87
2021/12/19 17:04:41;;;;;;;;;;;7.40;99.90;;;;;;6119569;23;19924;-86
2021/12/19 17:07:07;;;;;;;;;;;7.40;99.90;;;;;;6119524;23;19944;-86
2021/12/19 17:09:34;;;;;;;;;;;7.40;99.90;;;;;;6117504;23;19925;-82
2021/12/19 17:12:06;;;;;;;;;;;7.40;99.90;;;;;;6119233;23;19976;-83